Time;durP1;ratioP1;P1;durP2;ratioP2;P2;SDS_P1;SDS_P2;PMS_P1;PMS_P2;Temp;Humidity;BMP_temperature;BMP_pressure;BME280_temperature;BME280_humidity;BME280_pressure;Samples;Min_cycle;Max_cycle;Signal;HPM_P1;HPM_P2
2021/12/05 00:19:18;;;;;;;22.33;11.98;;;20.90;52.40;;;;;;5057040;28;20072;-68
2021/12/05 00:24:26;;;;;;;18.35;11.73;;;20.90;52.40;;;;;;5056910;28;20065;-68
2021/12/05 00:27:01;;;;;;;22.77;11.25;;;21.00;52.30;;;;;;5056841;28;20046;-68
2021/12/05 00:30:41;;;;;;;17.88;10.30;;;21.10;52.90;;;;;;5039591;28;20100;-68
2021/12/05 01:10:16;;;;;;;15.00;8.50;;;21.10;52.20;;;;;;5060192;28;20048;-68
2021/12/05 01:15:24;;;;;;;13.48;7.43;;;21.10;52.20;;;;;;5059476;28;20045;-67
2021/12/05 01:18:14;;;;;;;12.65;7.32;;;20.90;51.90;;;;;;5060171;28;20041;-68
2021/12/05 01:20:52;;;;;;;9.70;7.28;;;21.00;51.90;;;;;;5059587;28;20056;-68
2021/12/05 01:31:30;;;;;;;11.80;8.30;;;21.20;51.70;;;;;;5059933;28;20037;-68
2021/12/05 01:33:55;;;;;;;10.40;7.07;;;21.20;51.60;;;;;;5059064;28;20117;-68
2021/12/05 01:39:41;;;;;;;11.25;7.13;;;21.20;51.40;;;;;;5058346;28;20046;-68
2021/12/05 01:42:58;;;;;;;10.93;7.13;;;21.20;51.30;;;;;;5059186;28;20064;-68
2021/12/05 02:02:22;;;;;;;13.20;8.00;;;21.10;54.20;;;;;;5059393;28;20067;-68
2021/12/05 02:15:25;;;;;;;18.52;9.07;;;21.10;56.10;;;;;;5058601;28;20089;-68
2021/12/05 02:41:48;;;;;;;11.70;7.97;;;21.20;55.60;;;;;;5058432;28;20077;-68
2021/12/05 02:44:24;;;;;;;15.10;8.57;;;21.30;55.80;;;;;;5057579;28;20474;-68
2021/12/05 02:47:06;;;;;;;13.68;8.70;;;21.20;55.80;;;;;;5058012;28;20045;-68
2021/12/05 02:49:36;;;;;;;12.88;7.93;;;21.20;56.10;;;;;;5057950;28;20045;-68
2021/12/05 02:52:07;;;;;;;13.90;8.43;;;21.10;56.30;;;;;;5057912;28;20057;-68
2021/12/05 02:54:39;;;;;;;13.80;8.65;;;21.10;56.40;;;;;;5057574;28;20060;-69
2021/12/05 02:57:08;;;;;;;11.88;8.10;;;21.10;56.60;;;;;;5057654;28;20045;-68
2021/12/05 03:02:13;;;;;;;17.13;8.55;;;21.10;56.90;;;;;;5057485;28;20152;-68
2021/12/05 03:04:45;;;;;;;15.77;8.52;;;21.10;57.40;;;;;;5090848;28;20033;-68
2021/12/05 03:07:13;;;;;;;14.90;8.75;;;21.20;57.10;;;;;;5058082;28;20026;-68
2021/12/05 03:09:41;;;;;;;14.98;9.35;;;21.20;57.00;;;;;;5058102;28;20041;-68
2021/12/05 03:12:11;;;;;;;13.07;8.25;;;21.10;56.80;;;;;;5058096;28;20041;-68
2021/12/05 03:14:38;;;;;;;13.15;9.13;;;21.10;56.70;;;;;;5057253;28;20050;-68
2021/12/05 03:17:04;;;;;;;13.20;7.78;;;21.20;56.60;;;;;;5057378;28;20056;-68
2021/12/05 03:19:31;;;;;;;13.38;8.60;;;21.20;56.50;;;;;;5057380;28;20072;-68
2021/12/05 03:21:58;;;;;;;15.55;9.40;;;21.40;56.50;;;;;;5057176;28;20041;-68
2021/12/05 03:24:26;;;;;;;14.60;9.98;;;21.20;56.30;;;;;;5056974;28;20088;-68
2021/12/05 03:26:55;;;;;;;14.38;8.73;;;21.30;56.30;;;;;;5057299;28;20045;-68
2021/12/05 03:29:23;;;;;;;16.55;9.32;;;21.30;56.40;;;;;;5057214;28;20045;-68
2021/12/05 03:31:51;;;;;;;14.02;9.73;;;21.20;56.30;;;;;;5057208;28;20038;-67
2021/12/05 03:34:22;;;;;;;17.75;10.45;;;21.10;56.40;;;;;;5057030;28;20063;-68
2021/12/05 03:36:52;;;;;;;16.02;9.18;;;21.10;56.60;;;;;;5057562;28;20046;-68
2021/12/05 03:39:19;;;;;;;16.55;8.98;;;21.20;56.70;;;;;;5056819;28;20046;-68
2021/12/05 03:41:47;;;;;;;16.25;10.10;;;21.10;57.00;;;;;;5056896;28;20037;-68
2021/12/05 03:44:17;;;;;;;17.77;9.63;;;21.10;57.00;;;;;;5056762;28;20042;-68
2021/12/05 03:46:46;;;;;;;18.85;9.77;;;21.10;57.20;;;;;;5057429;28;20037;-68
2021/12/05 03:49:13;;;;;;;13.48;9.10;;;21.10;57.30;;;;;;5056831;28;20095;-68
2021/12/05 03:51:45;;;;;;;13.27;8.85;;;21.10;57.50;;;;;;5056672;28;20060;-67
2021/12/05 03:54:12;;;;;;;11.70;8.13;;;21.10;57.70;;;;;;5057491;28;20064;-68
2021/12/05 03:56:39;;;;;;;12.45;9.15;;;21.10;57.60;;;;;;5056679;28;20037;-67
2021/12/05 03:59:09;;;;;;;15.63;9.75;;;21.10;57.20;;;;;;5057200;28;20029;-68
2021/12/05 04:01:37;;;;;;;13.52;8.75;;;21.20;57.10;;;;;;5056556;28;20056;-68
2021/12/05 04:04:06;;;;;;;13.20;8.68;;;21.20;57.00;;;;;;5053134;28;20048;-68
2021/12/05 04:06:32;;;;;;;13.32;8.23;;;21.30;57.00;;;;;;5056335;28;20049;-68
2021/12/05 04:09:01;;;;;;;12.90;8.05;;;21.30;57.10;;;;;;5057181;28;20068;-68
2021/12/05 04:11:37;;;;;;;13.95;8.82;;;21.30;57.00;;;;;;5056492;28;20037;-68
2021/12/05 04:14:08;;;;;;;11.82;8.52;;;21.30;56.80;;;;;;5057089;28;20113;-68
2021/12/05 04:16:36;;;;;;;14.77;9.02;;;21.30;56.70;;;;;;5056267;28;20056;-68
2021/12/05 04:19:05;;;;;;;11.50;8.13;;;21.30;56.70;;;;;;5055620;28;20109;-68
2021/12/05 04:21:35;;;;;;;11.35;8.20;;;21.30;56.70;;;;;;5056182;28;20073;-68
2021/12/05 04:24:06;;;;;;;12.43;7.72;;;21.20;56.70;;;;;;5056210;28;20067;-69
2021/12/05 04:26:33;;;;;;;12.25;7.72;;;21.30;56.70;;;;;;5055998;28;20052;-68
2021/12/05 04:28:59;;;;;;;10.15;7.30;;;21.10;56.80;;;;;;5056286;28;20041;-68
2021/12/05 04:31:25;;;;;;;10.05;7.00;;;21.30;57.20;;;;;;5056244;28;20065;-68
2021/12/05 04:33:52;;;;;;;14.57;7.78;;;21.20;57.30;;;;;;5055988;28;20045;-68
2021/12/05 04:36:19;;;;;;;10.93;7.15;;;21.10;57.60;;;;;;5055923;28;20049;-68
2021/12/05 04:38:46;;;;;;;10.07;7.28;;;21.30;57.80;;;;;;5056191;28;20061;-68
2021/12/05 04:41:13;;;;;;;15.00;8.25;;;21.20;57.80;;;;;;5056388;28;20065;-68
2021/12/05 04:43:39;;;;;;;12.70;8.02;;;21.20;57.90;;;;;;5056057;28;20041;-68
2021/12/05 04:46:19;;;;;;;12.52;7.05;;;21.20;57.90;;;;;;5056605;28;20056;-68
2021/12/05 04:48:50;;;;;;;10.95;7.82;;;21.10;58.10;;;;;;5055995;28;20048;-68
2021/12/05 04:51:18;;;;;;;13.43;8.18;;;21.10;58.20;;;;;;5056097;28;20044;-68
2021/12/05 04:53:45;;;;;;;14.65;8.60;;;21.10;58.20;;;;;;5056377;28;20096;-68
2021/12/05 04:56:12;;;;;;;15.27;8.80;;;21.00;58.30;;;;;;5056487;28;20041;-68
2021/12/05 04:58:38;;;;;;;14.10;7.68;;;21.10;58.30;;;;;;5056615;28;20073;-68
2021/12/05 05:01:06;;;;;;;13.05;7.53;;;21.00;58.50;;;;;;5055477;28;20053;-68
2021/12/05 05:03:33;;;;;;;12.90;7.53;;;21.00;58.50;;;;;;5055926;28;20076;-68
2021/12/05 05:06:09;;;;;;;12.40;6.63;;;21.10;58.70;;;;;;5055600;28;20057;-68
2021/12/05 05:08:35;;;;;;;12.73;7.45;;;21.00;58.80;;;;;;5055652;28;20430;-68
2021/12/05 05:11:05;;;;;;;8.85;6.95;;;21.00;59.10;;;;;;5055823;28;20088;-68
2021/12/05 05:13:32;;;;;;;9.38;6.68;;;21.10;59.20;;;;;;5055853;28;20037;-67
2021/12/05 05:16:02;;;;;;;12.40;7.90;;;21.10;58.80;;;;;;5055391;28;20045;-68
2021/12/05 05:18:36;;;;;;;13.80;7.47;;;21.20;58.60;;;;;;5055633;28;20138;-67
2021/12/05 05:21:30;;;;;;;12.98;7.57;;;21.10;58.40;;;;;;5055707;28;20060;-67
2021/12/05 05:50:13;;;;;;;16.92;10.25;;;22.10;58.60;;;;;;5058890;28;20041;-69
2021/12/05 05:52:40;;;;;;;13.20;9.77;;;22.00;58.50;;;;;;5058951;28;20048;-70
2021/12/05 05:55:06;;;;;;;14.00;7.97;;;22.00;58.40;;;;;;5058860;28;20042;-73
2021/12/05 05:57:40;;;;;;;10.85;7.90;;;22.10;58.90;;;;;;5057791;28;20045;-74
2021/12/05 06:00:17;;;;;;;;;;;22.20;57.30;;;;;;5055819;28;20051;-74
2021/12/05 06:05:33;;;;;;;17.60;11.13;;;22.50;52.80;;;;;;5043927;28;20042;-68
2021/12/05 06:07:59;;;;;;;17.27;11.07;;;22.60;51.20;;;;;;5048159;28;20057;-68
2021/12/05 06:10:29;;;;;;;19.15;10.98;;;22.50;51.90;;;;;;5050315;28;20069;-67
2021/12/05 06:12:55;;;;;;;12.45;7.55;;;22.30;52.50;;;;;;5046317;28;20101;-69
2021/12/05 06:15:26;;;;;;;10.38;5.35;;;22.20;44.80;;;;;;5043793;28;20042;-70
2021/12/05 06:17:53;;;;;;;8.00;5.53;;;22.30;43.90;;;;;;5046726;28;20049;-69
2021/12/05 06:20:24;;;;;;;7.15;5.05;;;22.30;43.50;;;;;;5048493;28;20049;-69
2021/12/05 06:22:50;;;;;;;8.80;5.75;;;22.50;41.90;;;;;;5046578;28;20076;-69
2021/12/05 06:25:23;;;;;;;9.35;6.32;;;22.40;40.40;;;;;;5046291;28;20088;-69
2021/12/05 06:27:56;;;;;;;9.00;6.43;;;22.50;43.30;;;;;;5049041;28;20045;-69
2021/12/05 06:41:13;;;;;;;12.27;9.48;;;22.70;43.00;;;;;;5055106;28;20084;-70
2021/12/05 06:46:34;;;;;;;14.47;7.50;;;22.70;42.30;;;;;;5057867;28;20109;-68
2021/12/05 06:49:00;;;;;;;11.73;6.47;;;22.60;43.20;;;;;;5057786;28;20061;-69
2021/12/05 06:51:28;;;;;;;17.90;11.38;;;22.80;42.60;;;;;;5057732;28;20052;-70
2021/12/05 06:53:57;;;;;;;20.35;11.57;;;22.80;52.20;;;;;;5057580;28;20045;-70
2021/12/05 06:56:24;;;;;;;22.98;12.88;;;22.80;54.90;;;;;;5057803;28;20045;-70
2021/12/05 06:58:51;;;;;;;20.70;12.38;;;22.80;54.00;;;;;;5057452;28;20037;-71
2021/12/05 07:01:17;;;;;;;20.45;12.02;;;22.70;54.30;;;;;;5057221;28;20052;-71
2021/12/05 07:03:46;;;;;;;20.15;12.32;;;22.70;54.30;;;;;;5051837;28;20056;-71
2021/12/05 07:08:46;;;;;;;21.58;12.95;;;22.50;56.70;;;;;;5052350;28;20101;-70
2021/12/05 07:11:34;;;;;;;24.63;12.85;;;22.40;56.10;;;;;;5057484;28;20080;-71
2021/12/05 07:40:33;;;;;;;24.13;12.98;;;22.20;58.30;;;;;;5070169;28;20056;-70
2021/12/05 07:43:07;;;;;;;20.15;11.93;;;22.20;58.10;;;;;;5076615;28;20051;-70
2021/12/05 07:45:45;;;;;;;22.77;12.05;;;22.20;58.30;;;;;;5076861;28;20104;-70
2021/12/05 07:48:18;;;;;;;24.73;12.25;;;22.10;58.50;;;;;;5076720;28;20048;-70
2021/12/05 07:50:54;;;;;;;21.05;12.32;;;22.20;58.50;;;;;;5092475;28;20060;-69
2021/12/05 07:53:30;;;;;;;21.63;12.02;;;22.20;58.50;;;;;;5076415;28;20055;-69
2021/12/05 07:56:03;;;;;;;22.88;11.90;;;22.20;58.70;;;;;;5076053;28;20047;-70
2021/12/05 08:14:51;;;;;;;25.70;13.43;;;22.30;58.90;;;;;;5055836;28;20038;-69
2021/12/05 08:17:20;;;;;;;23.88;12.70;;;22.30;58.90;;;;;;5056116;28;20042;-69
2021/12/05 08:19:46;;;;;;;23.48;12.23;;;22.20;58.80;;;;;;5056162;28;20038;-69
2021/12/05 08:22:14;;;;;;;21.52;11.25;;;22.20;58.70;;;;;;5055971;28;20045;-69
2021/12/05 08:24:41;;;;;;;28.92;13.90;;;22.20;58.80;;;;;;5072017;28;20041;-69
2021/12/05 08:27:09;;;;;;;22.40;12.95;;;22.10;58.70;;;;;;5055919;28;20037;-70
2021/12/05 08:29:47;;;;;;;27.73;13.43;;;22.10;59.00;;;;;;5055846;28;20056;-69
2021/12/05 09:21:58;;;;;;;18.83;10.82;;;23.10;45.00;;;;;;5059426;28;20048;-76
2021/12/05 09:53:10;;;;;;;16.98;10.27;;;22.90;42.40;;;;;;5058774;28;20053;-69
2021/12/05 10:37:56;;;;;;;13.82;6.90;;;23.80;44.90;;;;;;5057671;28;20050;-73
2021/12/05 10:40:35;;;;;;;9.95;7.50;;;24.00;40.90;;;;;;5090307;28;20057;-67
2021/12/05 10:43:09;;;;;;;14.80;9.57;;;24.00;39.30;;;;;;5057233;28;20045;-66
2021/12/05 10:45:44;;;;;;;15.60;7.82;;;24.00;42.70;;;;;;5057474;28;20052;-67
2021/12/05 10:48:20;;;;;;;11.35;6.68;;;24.00;39.30;;;;;;5056941;28;20037;-66
2021/12/05 10:50:49;;;;;;;14.60;8.20;;;23.80;38.90;;;;;;5057527;28;20034;-67
2021/12/05 10:53:18;;;;;;;14.35;9.40;;;23.80;38.50;;;;;;5057658;28;20037;-67
2021/12/05 10:55:46;;;;;;;18.85;11.13;;;23.70;47.80;;;;;;5057686;28;20041;-67
2021/12/05 10:58:12;;;;;;;20.17;12.05;;;23.90;49.60;;;;;;5057457;28;20080;-67
2021/12/05 11:00:38;;;;;;;21.70;12.18;;;23.90;50.10;;;;;;5055803;28;20045;-66
2021/12/05 11:03:13;;;;;;;16.50;10.25;;;23.80;50.40;;;;;;5057539;28;20045;-66
2021/12/05 11:05:41;;;;;;;16.45;10.02;;;23.80;49.30;;;;;;5057362;28;20120;-66
2021/12/05 11:08:36;;;;;;;17.40;11.20;;;23.90;52.00;;;;;;5057529;28;20037;-65
2021/12/05 11:11:20;;;;;;;17.10;10.50;;;24.40;57.60;;;;;;5057632;28;20105;-68
2021/12/05 11:13:48;;;;;;;15.45;10.45;;;24.20;52.60;;;;;;5057223;28;20049;-68
2021/12/05 11:16:34;;;;;;;17.20;10.43;;;24.00;52.00;;;;;;5057393;28;20041;-66
2021/12/05 11:19:10;;;;;;;7.35;4.40;;;23.90;53.40;;;;;;5056702;28;20044;-66
2021/12/05 11:21:46;;;;;;;7.75;5.18;;;23.90;49.70;;;;;;5056574;28;20057;-68
2021/12/05 11:24:17;;;;;;;10.68;4.93;;;24.20;54.10;;;;;;5057035;28;20042;-67
2021/12/05 11:27:06;;;;;;;9.63;6.20;;;24.50;53.80;;;;;;5056967;28;20076;-68
2021/12/05 11:29:51;;;;;;;11.07;6.55;;;24.50;41.40;;;;;;5061522;28;20107;-68
2021/12/05 11:32:30;;;;;;;13.90;9.10;;;24.20;39.30;;;;;;5061482;28;20047;-67
2021/12/05 11:34:58;;;;;;;11.63;8.93;;;24.20;46.40;;;;;;5065076;28;20048;-67
2021/12/05 11:37:24;;;;;;;14.02;9.40;;;24.20;47.30;;;;;;5067980;28;20033;-66
2021/12/05 11:40:03;;;;;;;16.67;8.82;;;24.00;48.00;;;;;;5059860;28;20061;-66
2021/12/05 11:42:29;;;;;;;10.57;6.88;;;24.00;48.30;;;;;;5055958;28;20052;-66
2021/12/05 11:45:05;;;;;;;11.50;7.70;;;23.80;48.70;;;;;;5056167;28;20041;-68
2021/12/05 11:47:37;;;;;;;14.77;8.43;;;23.80;48.70;;;;;;5054110;28;20045;-68
2021/12/05 11:50:07;;;;;;;13.98;8.63;;;24.00;48.90;;;;;;5036492;28;20064;-68
2021/12/05 11:52:40;;;;;;;12.05;8.18;;;23.80;48.80;;;;;;5036476;28;20072;-68
2021/12/05 11:55:25;;;;;;;11.65;7.53;;;23.80;49.40;;;;;;5036053;28;20084;-67
2021/12/05 11:57:51;;;;;;;14.07;7.90;;;23.60;49.70;;;;;;5036374;28;20045;-69
2021/12/05 12:00:20;;;;;;;10.90;8.02;;;23.50;50.30;;;;;;5036175;28;20049;-69
2021/12/05 12:02:47;;;;;;;12.77;8.07;;;23.50;50.30;;;;;;5036080;28;20049;-70
2021/12/05 12:05:17;;;;;;;11.52;7.72;;;23.40;50.20;;;;;;5036001;28;20041;-70
2021/12/05 12:08:07;;;;;;;10.05;6.93;;;23.50;50.50;;;;;;5036426;28;20045;-70
2021/12/05 12:10:38;;;;;;;9.25;6.22;;;23.20;51.10;;;;;;5035826;28;20044;-70
2021/12/05 12:13:15;;;;;;;12.60;7.28;;;23.20;51.10;;;;;;5035871;28;20053;-71
2021/12/05 12:15:44;;;;;;;12.77;7.05;;;23.00;51.80;;;;;;5035689;28;20069;-71
2021/12/05 12:18:18;;;;;;;14.02;8.73;;;23.00;52.00;;;;;;5038712;28;20042;-70
2021/12/05 12:20:47;;;;;;;11.63;8.02;;;23.10;52.00;;;;;;5055948;28;20083;-70
2021/12/05 12:23:15;;;;;;;14.48;8.35;;;23.10;51.70;;;;;;5055983;28;20045;-70
2021/12/05 12:25:43;;;;;;;11.27;7.18;;;23.00;52.00;;;;;;5039163;28;20069;-70
2021/12/05 12:28:11;;;;;;;10.70;7.78;;;22.80;52.20;;;;;;5035697;28;20048;-70
2021/12/05 12:30:41;;;;;;;11.20;6.95;;;22.80;52.50;;;;;;5035803;28;20041;-69
2021/12/05 12:33:20;;;;;;;13.32;7.88;;;22.80;52.70;;;;;;5035738;28;20065;-70
2021/12/05 12:35:48;;;;;;;11.80;7.80;;;22.80;52.80;;;;;;5035879;28;20046;-69
2021/12/05 12:38:24;;;;;;;13.75;8.65;;;22.70;53.20;;;;;;5035863;28;20045;-69
2021/12/05 12:41:10;;;;;;;13.43;8.18;;;22.60;53.60;;;;;;5050468;28;20057;-70
2021/12/05 12:43:47;;;;;;;13.82;8.30;;;22.60;55.10;;;;;;5055821;28;20041;-70
2021/12/05 12:46:18;;;;;;;9.15;6.15;;;22.50;54.80;;;;;;5055717;28;20069;-71
2021/12/05 12:48:46;;;;;;;14.32;7.30;;;22.60;54.30;;;;;;5055559;28;20083;-72
2021/12/05 12:51:39;;;;;;;13.95;7.47;;;22.60;54.70;;;;;;5055116;28;20061;-71
2021/12/05 12:54:14;;;;;;;11.95;7.70;;;22.80;54.90;;;;;;5054135;28;20041;-70
2021/12/05 12:56:43;;;;;;;18.55;7.50;;;22.70;55.30;;;;;;5055857;28;20064;-70
2021/12/05 12:59:13;;;;;;;12.40;7.68;;;22.80;55.90;;;;;;5055495;28;20052;-71
2021/12/05 13:12:44;;;;;;;13.77;7.57;;;22.80;54.90;;;;;;5055574;28;20952;-70
2021/12/05 13:15:36;;;;;;;11.43;7.55;;;22.90;54.80;;;;;;5055613;28;20075;-71
2021/12/05 13:18:23;;;;;;;6.80;4.88;;;22.80;54.60;;;;;;5055708;28;20110;-70
2021/12/05 13:21:04;;;;;;;9.45;5.95;;;22.90;54.80;;;;;;5055436;28;20045;-70
2021/12/05 13:23:37;;;;;;;9.95;7.00;;;22.90;54.40;;;;;;5055316;28;20072;-70
2021/12/05 13:26:08;;;;;;;10.70;6.35;;;23.10;54.30;;;;;;5055205;28;20045;-70
2021/12/05 13:28:55;;;;;;;9.98;7.30;;;23.00;54.40;;;;;;5055549;28;20064;-70
2021/12/05 13:31:27;;;;;;;12.50;7.68;;;22.90;54.50;;;;;;5055040;28;20052;-71
2021/12/05 13:34:24;;;;;;;11.63;7.30;;;22.80;54.70;;;;;;5054831;28;20060;-71
2021/12/05 13:36:56;;;;;;;8.60;6.22;;;22.70;55.30;;;;;;5073920;28;20049;-70
2021/12/05 13:39:52;;;;;;;12.07;6.93;;;22.60;55.50;;;;;;5074992;28;20045;-70
2021/12/05 13:42:42;;;;;;;10.55;6.60;;;22.50;55.70;;;;;;5075119;28;20068;-70
2021/12/05 13:45:21;;;;;;;12.13;7.18;;;22.50;55.90;;;;;;5075361;28;20037;-70
2021/12/05 13:47:53;;;;;;;11.00;6.72;;;22.70;55.60;;;;;;5075176;28;20108;-71
2021/12/05 13:50:19;;;;;;;10.38;6.97;;;22.70;55.40;;;;;;5075134;28;20048;-71
2021/12/05 13:52:52;;;;;;;14.52;7.82;;;22.80;55.00;;;;;;5076580;28;20053;-71
2021/12/05 13:55:41;;;;;;;14.32;7.68;;;22.80;54.80;;;;;;5078559;28;20052;-70
2021/12/05 13:58:38;;;;;;;12.75;7.78;;;22.80;55.20;;;;;;5078829;28;20044;-71
2021/12/05 14:01:10;;;;;;;13.60;7.55;;;22.70;55.30;;;;;;5078578;28;20051;-71
2021/12/05 14:03:45;;;;;;;14.20;8.35;;;22.70;55.10;;;;;;5078569;28;20084;-71
2021/12/05 14:06:37;;;;;;;12.65;7.95;;;22.50;55.60;;;;;;5078611;28;20060;-70
2021/12/05 14:09:15;;;;;;;12.75;7.38;;;22.50;55.70;;;;;;5077995;28;20037;-69
2021/12/05 14:11:49;;;;;;;11.90;6.60;;;22.50;55.50;;;;;;5078089;28;20037;-73
2021/12/05 14:14:19;;;;;;;12.23;7.43;;;22.40;55.60;;;;;;5071173;28;20045;-73
2021/12/05 14:16:48;;;;;;;12.98;7.90;;;22.50;55.30;;;;;;5068660;28;20046;-73
2021/12/05 14:19:21;;;;;;;13.52;7.78;;;22.70;54.10;;;;;;5086641;28;20087;-75
2021/12/05 14:21:50;;;;;;;10.75;6.72;;;22.80;53.00;;;;;;5067580;28;20040;-74
2021/12/05 14:24:21;;;;;;;17.73;7.78;;;23.00;53.60;;;;;;5065957;28;20048;-74
2021/12/05 14:26:52;;;;;;;15.88;9.30;;;23.30;52.80;;;;;;5070684;28;20037;-68
2021/12/05 14:29:24;;;;;;;14.82;8.93;;;23.20;52.10;;;;;;5067492;28;20044;-70
2021/12/05 14:32:01;;;;;;;12.60;8.35;;;23.00;51.70;;;;;;5065897;28;20040;-70
2021/12/05 14:34:28;;;;;;;14.00;8.70;;;22.90;51.00;;;;;;5068698;28;20374;-70
2021/12/05 14:37:14;;;;;;;18.05;10.10;;;22.70;50.90;;;;;;5066270;28;20048;-68
2021/12/05 14:39:46;;;;;;;19.80;10.65;;;22.40;50.70;;;;;;5067044;28;20052;-69
2021/12/05 14:42:16;;;;;;;16.30;9.70;;;22.30;51.20;;;;;;5063815;28;20473;-69
2021/12/05 14:44:46;;;;;;;19.05;11.23;;;22.20;51.40;;;;;;5068825;28;20072;-69
2021/12/05 14:47:19;;;;;;;15.80;9.20;;;22.20;51.90;;;;;;5065644;28;20044;-72
2021/12/05 14:49:53;;;;;;;12.10;6.63;;;22.20;52.00;;;;;;5065315;28;20045;-70
2021/12/05 14:52:20;;;;;;;;;;;22.20;53.80;;;;;;5067454;28;20056;-69
2021/12/05 14:54:47;;;;;;;10.68;6.10;;;22.50;54.60;;;;;;5065466;28;19912;-69
2021/12/05 14:57:16;;;;;;;20.73;6.85;;;22.80;47.40;;;;;;5067852;28;20104;-71
2021/12/05 14:59:46;;;;;;;8.85;6.43;;;22.90;45.70;;;;;;5060977;28;20040;-71
2021/12/05 15:02:15;;;;;;;2.42;1.88;;;23.00;45.20;;;;;;5065068;28;20055;-70
2021/12/05 15:04:47;;;;;;;2.28;0.85;;;23.00;48.10;;;;;;5067362;28;20105;-70
2021/12/05 15:07:16;;;;;;;4.60;2.15;;;23.10;49.70;;;;;;5065746;28;20047;-68
2021/12/05 15:09:45;;;;;;;2.58;1.77;;;23.20;48.90;;;;;;5064954;28;20041;-70
2021/12/05 15:12:22;;;;;;;12.00;8.07;;;23.30;47.70;;;;;;5065669;28;20072;-69
2021/12/05 15:14:52;;;;;;;40.30;28.40;;;23.30;41.60;;;;;;5065871;28;20046;-70
2021/12/05 15:17:19;;;;;;;10.80;8.98;;;23.30;41.00;;;;;;5065695;28;20037;-71
2021/12/05 15:19:56;;;;;;;12.93;8.15;;;23.30;38.80;;;;;;5068216;28;20049;-73
2021/12/05 15:22:22;;;;;;;13.95;10.02;;;23.20;37.70;;;;;;5066029;28;20033;-69
2021/12/05 15:24:56;;;;;;;15.60;8.90;;;23.40;39.70;;;;;;5067157;28;20036;-72
2021/12/05 15:27:25;;;;;;;9.90;8.35;;;23.50;37.80;;;;;;5066999;28;20041;-71
2021/12/05 15:29:55;;;;;;;10.75;7.72;;;23.40;37.60;;;;;;5060253;28;20041;-72
2021/12/05 15:32:26;;;;;;;8.93;6.75;;;23.50;36.70;;;;;;5065641;28;20119;-70
2021/12/05 15:34:56;;;;;;;13.23;7.88;;;23.70;46.20;;;;;;5055857;28;20037;-72
2021/12/05 15:37:24;;;;;;;9.52;7.13;;;23.70;44.60;;;;;;5070967;28;20052;-73
2021/12/05 15:39:53;;;;;;;8.38;6.18;;;23.60;46.20;;;;;;5074794;28;20911;-73
2021/12/05 15:42:23;;;;;;;10.80;5.82;;;23.50;46.70;;;;;;5074911;28;20049;-70
2021/12/05 15:44:53;;;;;;;11.88;6.88;;;23.50;47.00;;;;;;5074862;28;20029;-68
2021/12/05 15:47:28;;;;;;;10.07;6.78;;;23.60;47.10;;;;;;5074693;28;20037;-66
2021/12/05 15:50:10;;;;;;;10.32;6.22;;;23.50;46.80;;;;;;5074582;28;20083;-68
2021/12/05 15:52:42;;;;;;;10.90;7.15;;;23.50;47.50;;;;;;5074718;28;20037;-69
2021/12/05 15:55:24;;;;;;;11.73;7.95;;;23.20;48.40;;;;;;5074644;28;20037;-70
2021/12/05 15:57:55;;;;;;;15.02;8.98;;;23.20;49.40;;;;;;5074637;28;20041;-69
2021/12/05 16:00:31;;;;;;;12.43;7.22;;;23.10;50.10;;;;;;5074574;28;20128;-71
2021/12/05 16:03:03;;;;;;;13.10;8.02;;;23.10;50.20;;;;;;5074385;28;20044;-71
2021/12/05 16:05:31;;;;;;;15.45;8.68;;;23.10;50.20;;;;;;5074666;28;20047;-69
2021/12/05 16:08:04;;;;;;;17.23;8.25;;;23.10;50.30;;;;;;5074496;28;20051;-69
2021/12/05 16:10:32;;;;;;;11.88;7.70;;;23.20;50.30;;;;;;5074484;28;20044;-70
2021/12/05 16:13:07;;;;;;;13.50;8.10;;;23.20;50.50;;;;;;5074609;28;20041;-69
2021/12/05 16:15:34;;;;;;;11.85;7.18;;;23.20;50.70;;;;;;5072759;28;20041;-69
2021/12/05 16:18:01;;;;;;;10.38;7.20;;;23.10;51.00;;;;;;5053688;28;20029;-71
2021/12/05 16:20:48;;;;;;;12.50;7.30;;;23.00;51.00;;;;;;5054391;28;20045;-71
2021/12/05 16:23:18;;;;;;;12.00;8.15;;;23.10;51.30;;;;;;5054513;28;20053;-70
2021/12/05 16:26:16;;;;;;;10.07;7.00;;;23.00;51.70;;;;;;5054253;28;20041;-70
2021/12/05 16:28:47;;;;;;;7.00;4.28;;;22.90;52.30;;;;;;5054024;28;20040;-70
2021/12/05 16:31:20;;;;;;;7.78;5.10;;;23.00;51.60;;;;;;5054176;28;20041;-71
2021/12/05 16:33:53;;;;;;;;;;;23.40;50.50;;;;;;5054697;28;20052;-71
2021/12/05 16:36:21;;;;;;;29.70;7.78;;;23.50;49.10;;;;;;5054081;28;19909;-73
2021/12/05 16:38:50;;;;;;;12.55;8.52;;;24.00;49.60;;;;;;5054076;28;20045;-72
2021/12/05 16:41:26;;;;;;;20.35;9.10;;;24.20;48.80;;;;;;5072873;28;20084;-70
2021/12/05 16:44:09;;;;;;;10.13;6.93;;;24.30;49.10;;;;;;5073867;28;20088;-68
2021/12/05 16:46:38;;;;;;;14.13;8.82;;;24.30;48.90;;;;;;5074753;28;20048;-67
2021/12/05 16:49:11;;;;;;;11.30;7.05;;;24.30;50.20;;;;;;5075978;28;20048;-66
2021/12/05 16:51:48;;;;;;;16.42;8.65;;;24.10;50.10;;;;;;5075680;28;20037;-66
2021/12/05 16:54:18;;;;;;;13.80;8.45;;;24.10;50.20;;;;;;5075995;28;20104;-67
2021/12/05 16:56:54;;;;;;;11.75;8.07;;;23.80;50.70;;;;;;5075768;28;20078;-70
2021/12/05 16:59:25;;;;;;;14.88;8.80;;;23.70;51.30;;;;;;5075925;28;20167;-70
2021/12/05 17:02:18;;;;;;;15.00;8.43;;;23.50;51.70;;;;;;5075720;28;20064;-68
2021/12/05 17:05:26;;;;;;;15.18;9.45;;;23.50;51.80;;;;;;5075612;28;20036;-69
2021/12/05 17:08:06;;;;;;;16.30;8.75;;;23.40;52.20;;;;;;5029031;28;20061;-69
2021/12/05 17:10:44;;;;;;;16.15;9.25;;;23.30;52.70;;;;;;5035602;28;20034;-69
2021/12/05 17:13:17;;;;;;;14.45;8.60;;;23.20;52.50;;;;;;5035941;28;20042;-69
2021/12/05 17:15:50;;;;;;;13.20;8.73;;;23.20;53.20;;;;;;5035793;28;20049;-69
2021/12/05 17:18:23;;;;;;;12.40;8.85;;;23.30;52.70;;;;;;5035739;28;20049;-69
2021/12/05 17:20:54;;;;;;;13.90;8.90;;;23.10;53.70;;;;;;5046416;28;20033;-68
2021/12/05 17:23:41;;;;;;;18.13;10.50;;;23.10;53.80;;;;;;5075422;28;20049;-68
2021/12/05 17:26:20;;;;;;;22.27;9.65;;;23.10;53.90;;;;;;5075892;28;20045;-68
2021/12/05 17:28:52;;;;;;;18.65;9.93;;;23.00;54.20;;;;;;5079394;28;20060;-69
2021/12/05 17:31:47;;;;;;;14.05;8.63;;;23.10;54.50;;;;;;5079310;28;20048;-69
2021/12/05 17:34:40;;;;;;;14.07;7.55;;;22.90;54.80;;;;;;5057133;28;20045;-68
2021/12/05 17:37:09;;;;;;;11.98;8.13;;;22.90;55.10;;;;;;5079269;28;20043;-68
2021/12/05 17:39:42;;;;;;;13.02;8.00;;;22.90;55.60;;;;;;5079000;28;20041;-68
2021/12/05 17:42:12;;;;;;;12.80;8.70;;;23.00;55.20;;;;;;5078849;28;20068;-69
2021/12/05 17:44:41;;;;;;;13.63;8.10;;;22.90;55.10;;;;;;5079159;28;20075;-70
2021/12/05 17:47:10;;;;;;;14.82;9.13;;;23.00;55.30;;;;;;5079001;28;20111;-69
2021/12/05 17:49:39;;;;;;;15.25;9.68;;;22.90;56.40;;;;;;5079104;28;20037;-69
2021/12/05 17:52:07;;;;;;;17.27;9.30;;;22.90;56.80;;;;;;5078878;28;20039;-68
2021/12/05 17:54:40;;;;;;;16.98;9.63;;;22.80;57.00;;;;;;5078687;28;20033;-69
2021/12/05 17:57:16;;;;;;;14.52;9.60;;;22.90;57.40;;;;;;5095005;28;20029;-68
2021/12/05 18:05:02;;;;;;;17.98;9.52;;;22.90;57.70;;;;;;5078803;28;20139;-68
2021/12/05 18:07:28;;;;;;;15.80;10.15;;;23.00;57.80;;;;;;5073868;28;20041;-68
2021/12/05 18:09:55;;;;;;;17.45;9.65;;;22.90;57.00;;;;;;5058646;28;20052;-68
2021/12/05 18:12:21;;;;;;;15.73;9.90;;;22.90;56.80;;;;;;5058536;28;20071;-69
2021/12/05 18:14:50;;;;;;;16.55;8.75;;;22.90;56.40;;;;;;5057772;28;20037;-67
2021/12/05 18:17:17;;;;;;;16.83;9.50;;;22.90;56.40;;;;;;5058561;28;20177;-70
2021/12/05 18:19:43;;;;;;;17.15;8.20;;;23.00;56.40;;;;;;5058436;28;20042;-68
2021/12/05 18:22:11;;;;;;;13.82;8.68;;;23.10;56.30;;;;;;5057503;28;20103;-68
2021/12/05 18:24:38;;;;;;;17.20;10.25;;;23.00;55.90;;;;;;5058375;28;20052;-68
2021/12/05 18:27:04;;;;;;;14.32;8.57;;;23.10;55.90;;;;;;5058464;28;20047;-68
2021/12/05 18:29:30;;;;;;;12.98;8.80;;;23.00;55.80;;;;;;5058058;28;20037;-68
2021/12/05 18:31:56;;;;;;;15.50;7.28;;;22.90;56.10;;;;;;5058183;28;20105;-69
2021/12/05 18:34:28;;;;;;;9.73;6.00;;;22.90;56.20;;;;;;5058193;28;20060;-69
2021/12/05 18:36:59;;;;;;;9.50;6.43;;;23.00;56.50;;;;;;5058165;28;20045;-69
2021/12/05 18:39:30;;;;;;;11.43;7.05;;;23.10;56.00;;;;;;5061209;28;20060;-69
2021/12/05 18:42:06;;;;;;;11.60;6.97;;;23.10;56.40;;;;;;5077760;28;20059;-70
2021/12/05 18:44:38;;;;;;;12.88;7.68;;;23.10;56.40;;;;;;5078027;28;20041;-69
2021/12/05 18:47:05;;;;;;;11.45;7.10;;;23.10;57.20;;;;;;5076315;28;20049;-69
2021/12/05 18:49:32;;;;;;;11.52;7.07;;;23.00;57.40;;;;;;5077767;28;20065;-69
2021/12/05 18:52:00;;;;;;;10.77;6.82;;;23.00;57.70;;;;;;5077493;28;20056;-68
2021/12/05 18:54:30;;;;;;;11.95;7.28;;;23.00;57.60;;;;;;5075850;28;20083;-68
2021/12/05 18:56:57;;;;;;;12.18;7.32;;;23.10;57.80;;;;;;5077637;28;20048;-70